Terminal Aerodrome Forecast
Issued by NWS

Home | Current Version | Previous Version | Text Only | Print | Product List | Glossary On
Versions: 1 2 3 4 5 6 7 8 9 10 11 12 13 14 15 16 17 18 19 20 21 22 23 24 25 26 27
000
FTUS44 KMAF 170500
TAFHOB
TAF
KHOB 170530Z 1706/1806 VRB05KT P6SM SCT040 BKN080
     FM170800 VRB05KT P6SM BKN015
     FM171900 12007KT P6SM -SHRA SCT030 BKN080=

USA.gov is the U.S. government's official web portal to all federal, state and local government web resources and services.